Time;durP1;ratioP1;P1;durP2;ratioP2;P2;SDS_P1;SDS_P2;PMS_P1;PMS_P2;Temp;Humidity;BMP_temperature;BMP_pressure;BME280_temperature;BME280_humidity;BME280_pressure;Samples;Min_cycle;Max_cycle;Signal;HPM_P1;HPM_P2
2022/02/03 00:00:56;;;;;;;0.98;0.47;;;19.20;46.80;;;;;;6149367;29;20109;-69
2022/02/03 00:04:07;;;;;;;0.95;0.57;;;19.20;46.80;;;;;;6149433;29;20023;-70
2022/02/03 00:07:13;;;;;;;1.42;0.70;;;19.20;46.80;;;;;;6149293;29;20020;-70
2022/02/03 00:16:58;;;;;;;0.55;0.45;;;19.20;46.80;;;;;;6148912;29;20474;-70
2022/02/03 00:26:53;;;;;;;1.15;0.73;;;19.20;46.70;;;;;;6173029;28;20390;-70
2022/02/03 00:29:59;;;;;;;2.00;0.70;;;19.20;46.90;;;;;;6172726;28;20439;-70
2022/02/03 00:36:25;;;;;;;2.22;0.68;;;19.20;46.80;;;;;;6172843;28;20033;-70
2022/02/03 00:49:28;;;;;;;1.90;0.80;;;19.20;46.90;;;;;;6148493;29;20031;-70
2022/02/03 00:52:33;;;;;;;0.70;0.60;;;19.20;47.10;;;;;;6148146;29;20030;-70
2022/02/03 00:55:37;;;;;;;;;;;19.20;47.00;;;;;;6148341;29;20086;-69
2022/02/03 00:58:41;;;;;;;1.00;0.70;;;19.20;46.90;;;;;;6148018;28;20328;-70
2022/02/03 01:01:51;;;;;;;1.13;0.68;;;19.20;46.80;;;;;;6147926;29;20062;-70
2022/02/03 01:04:53;;;;;;;1.27;0.50;;;19.20;47.00;;;;;;6147699;29;20027;-70
2022/02/03 01:07:56;;;;;;;1.50;0.77;;;19.20;47.00;;;;;;6148094;29;20043;-70
2022/02/03 01:11:09;;;;;;;1.33;0.55;;;19.20;47.00;;;;;;6148014;29;20035;-69
2022/02/03 01:14:16;;;;;;;1.42;0.68;;;19.20;47.00;;;;;;6147483;29;20027;-70
2022/02/03 01:33:51;;;;;;;0.98;0.68;;;19.20;47.00;;;;;;6160576;28;20030;-70
2022/02/03 01:43:35;;;;;;;2.47;1.00;;;19.20;47.00;;;;;;6148640;28;20027;-70
2022/02/03 01:47:23;;;;;;;1.55;0.70;;;19.20;47.00;;;;;;6146913;29;20127;-70
2022/02/03 01:53:16;;;;;;;1.05;0.70;;;19.20;47.00;;;;;;6147105;29;20110;-70
2022/02/03 01:56:24;;;;;;;1.40;0.50;;;19.20;47.00;;;;;;6146703;29;20031;-70
2022/02/03 01:59:26;;;;;;;2.13;0.90;;;19.20;47.00;;;;;;6147603;29;20089;-70
2022/02/03 02:02:32;;;;;;;2.88;0.80;;;19.20;47.00;;;;;;6146840;29;20492;-70
2022/02/03 02:05:42;;;;;;;1.08;0.65;;;19.20;47.00;;;;;;6146742;29;20390;-70
2022/02/03 02:09:02;;;;;;;1.75;0.73;;;19.20;47.00;;;;;;6146734;29;20027;-70
2022/02/03 02:12:51;;;;;;;1.77;0.70;;;19.20;47.00;;;;;;6146736;29;20042;-70
2022/02/03 02:43:22;;;;;;;1.67;0.77;;;19.20;47.10;;;;;;6147988;28;20114;-70
2022/02/03 02:46:38;;;;;;;0.85;0.47;;;19.20;47.10;;;;;;6146591;29;20110;-70
2022/02/03 02:50:00;;;;;;;;;;;19.20;47.10;;;;;;6146907;29;20024;-70
2022/02/03 02:56:50;;;;;;;2.47;0.68;;;19.20;47.10;;;;;;6141441;29;20043;-70
2022/02/03 03:33:36;;;;;;;3.67;0.60;;;19.20;47.10;;;;;;6174359;28;20099;-70
2022/02/03 03:36:40;;;;;;;2.00;0.82;;;19.20;47.10;;;;;;6173922;28;20477;-70
2022/02/03 03:39:47;;;;;;;1.00;0.63;;;19.20;47.20;;;;;;6173785;28;20355;-70
2022/02/03 03:42:59;;;;;;;1.13;0.60;;;19.20;47.10;;;;;;6154808;28;20042;-70
2022/02/03 03:46:15;;;;;;;1.15;0.70;;;19.10;47.10;;;;;;6149890;29;20470;-70
2022/02/03 03:49:30;;;;;;;1.25;0.63;;;19.20;47.10;;;;;;6149642;29;20031;-70
2022/02/03 03:52:39;;;;;;;;;;;19.20;47.10;;;;;;6149082;28;20101;-70
2022/02/03 03:55:56;;;;;;;1.13;0.63;;;19.10;47.00;;;;;;6149533;28;19922;-70
2022/02/03 04:34:14;;;;;;;1.13;0.68;;;19.10;47.00;;;;;;6164457;28;20065;-70
2022/02/03 04:52:51;;;;;;;1.55;0.80;;;19.10;47.10;;;;;;6148587;29;20577;-70
2022/02/03 05:02:14;;;;;;;1.42;0.75;;;19.10;47.10;;;;;;6172067;28;20355;-69
2022/02/03 05:05:46;;;;;;;1.50;0.60;;;19.10;47.10;;;;;;6172082;28;20034;-69
2022/02/03 05:13:01;;;;;;;1.80;0.90;;;19.10;47.10;;;;;;6172273;28;20033;-70
2022/02/03 05:44:21;;;;;;;1.40;0.82;;;19.20;47.00;;;;;;6147379;29;20486;-69
2022/02/03 05:47:58;;;;;;;;;;;19.20;47.10;;;;;;6147992;29;20023;-69
2022/02/03 06:23:41;;;;;;;4.05;0.90;;;19.20;47.30;;;;;;6146968;29;20356;-70
2022/02/03 06:30:01;;;;;;;1.38;0.60;;;19.20;47.30;;;;;;6146696;29;20035;-70
2022/02/03 06:33:01;;;;;;;1.05;0.50;;;19.20;47.30;;;;;;6157195;28;20058;-70
2022/02/03 06:36:02;;;;;;;1.25;0.52;;;19.20;47.40;;;;;;6168055;28;20050;-68
2022/02/03 06:39:18;;;;;;;1.20;0.60;;;19.20;47.40;;;;;;6170265;28;20099;-70
2022/02/03 06:42:18;;;;;;;1.48;0.90;;;19.20;47.30;;;;;;6173950;28;20436;-71
2022/02/03 06:45:33;;;;;;;3.17;0.70;;;19.20;47.30;;;;;;6174663;28;20027;-70
2022/02/03 06:48:35;;;;;;;1.17;0.60;;;19.20;47.30;;;;;;6173871;28;20097;-70
2022/02/03 06:51:41;;;;;;;1.73;0.70;;;19.20;47.20;;;;;;6174168;28;20515;-70
2022/02/03 06:57:55;;;;;;;1.73;0.68;;;19.20;47.30;;;;;;6173529;28;20069;-70
2022/02/03 07:01:02;;;;;;;1.50;0.80;;;19.20;47.30;;;;;;6168966;28;20045;-71
2022/02/03 07:04:12;;;;;;;1.77;0.70;;;19.20;47.30;;;;;;6159762;28;20449;-69
2022/02/03 07:07:17;;;;;;;1.45;0.60;;;19.20;47.30;;;;;;6175697;28;20058;-70
2022/02/03 07:10:18;;;;;;;4.22;0.88;;;19.20;47.40;;;;;;6176521;28;20081;-68
2022/02/03 07:13:19;;;;;;;1.15;0.60;;;19.20;47.40;;;;;;6165202;28;20022;-69
2022/02/03 07:16:19;;;;;;;6.82;1.05;;;19.20;47.60;;;;;;6192708;28;20030;-69
2022/02/03 07:19:20;;;;;;;2.35;0.80;;;19.30;47.40;;;;;;6175524;28;20023;-69
2022/02/03 07:22:20;;;;;;;5.90;0.90;;;19.30;47.30;;;;;;6175851;28;20053;-69
2022/02/03 07:25:21;;;;;;;2.65;0.90;;;19.40;47.20;;;;;;6175724;28;20162;-69
2022/02/03 07:28:22;;;;;;;4.43;0.75;;;19.40;47.00;;;;;;6175094;28;20038;-70
2022/02/03 07:31:22;;;;;;;3.53;0.90;;;19.40;47.00;;;;;;6174665;28;20151;-69
2022/02/03 07:34:23;;;;;;;3.92;1.30;;;19.40;46.90;;;;;;6175289;28;20031;-70
2022/02/03 07:37:25;;;;;;;4.60;0.90;;;19.40;47.00;;;;;;6175198;28;20034;-70
2022/02/03 07:40:26;;;;;;;3.65;1.10;;;19.40;47.10;;;;;;6175340;28;20497;-69
2022/02/03 07:43:26;;;;;;;2.08;0.80;;;19.40;47.10;;;;;;6164259;28;20027;-70
2022/02/03 07:46:30;;;;;;;3.97;1.05;;;19.40;47.50;;;;;;6173983;28;20119;-70
2022/02/03 07:49:33;;;;;;;7.35;1.38;;;19.20;47.50;;;;;;6175031;28;20110;-70
2022/02/03 07:52:33;;;;;;;10.73;2.17;;;19.10;46.80;;;;;;6175226;28;20536;-70
2022/02/03 07:55:35;;;;;;;11.35;3.00;;;19.10;45.30;;;;;;6174834;28;20086;-70
2022/02/03 07:58:35;;;;;;;11.25;2.88;;;19.10;44.30;;;;;;6173801;28;20019;-70
2022/02/03 08:01:36;;;;;;;8.95;2.28;;;19.20;45.10;;;;;;6174720;28;20042;-70
2022/02/03 08:04:43;;;;;;;6.50;1.90;;;19.20;45.40;;;;;;6175404;28;20027;-70
2022/02/03 08:08:02;;;;;;;9.10;2.05;;;19.20;45.60;;;;;;6174581;28;20030;-70
2022/02/03 08:11:10;;;;;;;5.43;2.00;;;19.20;45.80;;;;;;6174180;28;20389;-70
2022/02/03 08:14:28;;;;;;;6.50;1.80;;;19.20;45.80;;;;;;6174795;28;20030;-69
2022/02/03 08:17:38;;;;;;;6.90;1.80;;;19.20;45.90;;;;;;6174279;28;20075;-69
2022/02/03 08:20:47;;;;;;;12.55;2.63;;;19.30;46.10;;;;;;6174366;28;20070;-69
2022/02/03 08:24:12;;;;;;;10.10;2.15;;;19.20;46.90;;;;;;6149332;28;20038;-70
2022/02/03 08:33:32;;;;;;;9.80;2.72;;;19.00;45.90;;;;;;6173790;28;20547;-70
2022/02/03 08:36:35;;;;;;;10.05;2.85;;;18.90;45.40;;;;;;6173968;28;20023;-70
2022/02/03 08:39:49;;;;;;;14.45;3.40;;;18.80;44.90;;;;;;6174541;28;20113;-70
2022/02/03 08:42:50;;;;;;;15.05;4.15;;;18.80;44.80;;;;;;6173728;28;20046;-70
2022/02/03 08:45:51;;;;;;;14.50;3.80;;;18.80;44.40;;;;;;6174255;28;20390;-70
2022/02/03 08:48:52;;;;;;;11.80;3.53;;;18.70;44.40;;;;;;6174017;28;20031;-70
2022/02/03 08:51:55;;;;;;;11.88;3.83;;;18.70;44.20;;;;;;6173634;28;20390;-69
2022/02/03 08:58:20;;;;;;;23.58;4.72;;;18.70;43.60;;;;;;6173363;28;20522;-69
2022/02/03 09:37:36;;;;;;;13.07;3.97;;;18.90;43.20;;;;;;6169012;28;20317;-69
2022/02/03 09:41:00;;;;;;;11.95;3.42;;;18.90;43.10;;;;;;6170276;28;20060;-70
2022/02/03 09:57:41;;;;;;;13.20;3.72;;;19.00;43.00;;;;;;6170749;28;20401;-69
2022/02/03 10:00:50;;;;;;;14.60;3.10;;;19.00;43.20;;;;;;6169061;28;20042;-69
2022/02/03 10:04:09;;;;;;;11.95;3.20;;;19.00;44.10;;;;;;6169609;28;20106;-68
2022/02/03 10:07:17;;;;;;;9.52;2.70;;;19.00;43.90;;;;;;6168925;28;20113;-69
2022/02/03 10:10:17;;;;;;;8.55;2.63;;;19.00;44.00;;;;;;6169374;28;20031;-69
2022/02/03 10:13:22;;;;;;;10.30;2.97;;;19.00;44.10;;;;;;6169099;28;20089;-69
2022/02/03 10:16:34;;;;;;;8.55;2.90;;;19.00;44.20;;;;;;6168747;28;20059;-69
2022/02/03 10:19:46;;;;;;;14.98;2.67;;;19.00;44.30;;;;;;6169993;28;20386;-70
2022/02/03 10:22:53;;;;;;;13.73;2.95;;;19.00;44.40;;;;;;6168392;28;20062;-68
2022/02/03 10:26:06;;;;;;;7.88;2.33;;;19.00;44.60;;;;;;6170057;28;20034;-70
2022/02/03 10:29:12;;;;;;;8.65;2.88;;;19.00;44.60;;;;;;6167995;28;20023;-69
2022/02/03 10:32:12;;;;;;;7.15;2.40;;;19.00;44.60;;;;;;6169653;28;20385;-69
2022/02/03 10:35:24;;;;;;;11.82;2.88;;;19.00;44.70;;;;;;6169310;28;20107;-69
2022/02/03 10:51:35;;;;;;;6.97;2.35;;;19.10;44.60;;;;;;6155389;28;20031;-70
2022/02/03 11:05:06;;;;;;;9.00;2.75;;;19.20;44.70;;;;;;6169481;28;20038;-69
2022/02/03 11:08:15;;;;;;;9.73;2.90;;;19.20;44.80;;;;;;6169876;28;20448;-69
2022/02/03 11:11:22;;;;;;;10.80;2.95;;;19.20;44.80;;;;;;6170008;28;20035;-70
2022/02/03 11:14:24;;;;;;;7.78;2.95;;;19.20;44.80;;;;;;6173520;28;20030;-69
2022/02/03 11:17:27;;;;;;;8.57;3.35;;;19.20;44.80;;;;;;6194169;28;20441;-69
2022/02/03 11:20:30;;;;;;;12.00;3.10;;;19.20;44.90;;;;;;6194853;28;20038;-69
2022/02/03 11:23:38;;;;;;;15.48;3.17;;;19.20;44.90;;;;;;6180512;28;20541;-69
2022/02/03 11:27:02;;;;;;;10.77;3.13;;;19.20;44.90;;;;;;6149732;28;20038;-69
2022/02/03 11:30:56;;;;;;;11.75;3.35;;;19.20;44.80;;;;;;6168330;28;20110;-71
2022/02/03 11:44:12;;;;;;;7.68;2.72;;;19.20;45.30;;;;;;6173054;28;20084;-70
2022/02/03 12:12:11;;;;;;;6.88;2.47;;;19.20;45.60;;;;;;6172381;28;20080;-70
2022/02/03 12:15:21;;;;;;;5.85;2.40;;;19.20;45.60;;;;;;6172346;28;20039;-69
2022/02/03 12:22:11;;;;;;;4.38;2.40;;;19.20;45.60;;;;;;6171153;28;20294;-70
2022/02/03 12:41:43;;;;;;;6.22;2.13;;;19.20;45.80;;;;;;6136947;29;20491;-69
2022/02/03 12:44:45;;;;;;;4.30;2.03;;;19.20;45.90;;;;;;6122032;28;20028;-70
2022/02/03 12:47:47;;;;;;;4.82;2.40;;;19.20;45.90;;;;;;6148153;28;20491;-70
2022/02/03 12:50:48;;;;;;;4.50;1.77;;;19.20;45.90;;;;;;6147702;28;20027;-70
2022/02/03 12:53:48;;;;;;;4.97;2.03;;;19.20;46.00;;;;;;6158707;28;20043;-70
2022/02/03 12:56:49;;;;;;;3.58;1.50;;;19.20;46.10;;;;;;6171659;28;20113;-70
2022/02/03 13:00:12;;;;;;;3.83;2.03;;;19.20;46.10;;;;;;6165797;28;20019;-70
2022/02/03 13:03:16;;;;;;;3.47;1.80;;;19.20;46.20;;;;;;6171221;28;20122;-68
2022/02/03 13:06:23;;;;;;;3.58;1.70;;;19.20;46.20;;;;;;6170886;28;20027;-69
2022/02/03 13:09:32;;;;;;;4.88;2.10;;;19.20;46.20;;;;;;6171491;28;20030;-71
2022/02/03 13:12:38;;;;;;;3.55;1.42;;;19.20;46.30;;;;;;6157715;28;20437;-70
2022/02/03 13:15:41;;;;;;;;;;;19.20;46.30;;;;;;6171338;28;20466;-70
2022/02/03 13:18:50;;;;;;;5.25;1.70;;;19.20;46.30;;;;;;6170090;28;19906;-69
2022/02/03 13:28:15;;;;;;;9.77;5.50;;;19.20;46.40;;;;;;6170946;28;20098;-69
2022/02/03 13:31:25;;;;;;;14.83;9.30;;;19.20;46.60;;;;;;6174907;28;20298;-69
2022/02/03 13:37:39;;;;;;;23.63;15.10;;;19.20;46.50;;;;;;6146956;28;20062;-70
2022/02/03 13:40:39;;;;;;;24.48;15.00;;;19.20;46.50;;;;;;6161122;28;20038;-70
2022/02/03 13:43:42;;;;;;;26.00;14.43;;;19.20;46.50;;;;;;6160912;28;20023;-69
2022/02/03 13:46:43;;;;;;;24.80;14.50;;;19.20;46.50;;;;;;6169964;28;20019;-70
2022/02/03 13:49:44;;;;;;;24.02;14.50;;;19.20;46.50;;;;;;6169833;28;20116;-69
2022/02/03 13:52:50;;;;;;;24.73;14.02;;;19.20;46.50;;;;;;6169929;28;20106;-69
2022/02/03 14:23:00;;;;;;;19.65;12.27;;;19.20;46.60;;;;;;6151480;28;20043;-70
2022/02/03 14:29:26;;;;;;;18.67;11.40;;;19.20;46.70;;;;;;6169878;28;20054;-69
2022/02/03 14:32:37;;;;;;;18.00;11.93;;;19.20;46.70;;;;;;6169557;28;20025;-69
2022/02/03 14:35:39;;;;;;;16.23;10.98;;;19.20;46.80;;;;;;6170395;28;20055;-69
2022/02/03 14:38:56;;;;;;;19.23;11.40;;;19.20;46.80;;;;;;6158396;28;20046;-69
2022/02/03 14:41:56;;;;;;;17.98;11.45;;;19.20;46.80;;;;;;6169305;28;20031;-69
2022/02/03 14:44:58;;;;;;;19.08;12.45;;;19.20;46.80;;;;;;6169684;28;20049;-70
2022/02/03 14:47:58;;;;;;;19.65;12.43;;;19.20;46.90;;;;;;6169361;28;20034;-69
2022/02/03 14:51:00;;;;;;;21.13;13.90;;;19.20;46.90;;;;;;6169336;28;20030;-69
2022/02/03 15:00:24;;;;;;;22.65;14.90;;;19.20;47.00;;;;;;6174056;28;20054;-69
2022/02/03 15:03:25;;;;;;;21.10;14.30;;;19.20;47.00;;;;;;6174437;28;20041;-69
2022/02/03 15:06:28;;;;;;;20.27;13.70;;;19.20;46.90;;;;;;6174013;28;20026;-70
2022/02/03 15:09:51;;;;;;;19.90;12.80;;;19.20;47.00;;;;;;6174342;28;20031;-69
2022/02/03 15:13:40;;;;;;;18.65;12.52;;;19.20;47.10;;;;;;6173982;28;20033;-70
2022/02/03 15:16:15;;;;;;;20.13;12.93;;;19.20;47.00;;;;;;6173267;28;20035;-69
2022/02/03 15:19:16;;;;;;;18.58;12.60;;;19.20;47.10;;;;;;6173806;28;20112;-69
2022/02/03 15:22:16;;;;;;;18.70;12.05;;;19.20;47.10;;;;;;6174073;28;20034;-70
2022/02/03 15:25:17;;;;;;;17.15;11.30;;;19.20;47.20;;;;;;6173717;28;20045;-70
2022/02/03 15:28:18;;;;;;;16.85;11.65;;;19.20;47.20;;;;;;6173421;28;20488;-69
2022/02/03 15:31:21;;;;;;;17.40;11.07;;;19.20;47.20;;;;;;6177784;28;20037;-69
2022/02/03 15:34:22;;;;;;;17.67;11.13;;;19.20;47.10;;;;;;6156200;28;20031;-70
2022/02/03 15:37:26;;;;;;;15.23;9.75;;;19.20;47.10;;;;;;6156489;28;20023;-69
2022/02/03 15:40:28;;;;;;;14.05;10.10;;;19.20;47.10;;;;;;6173236;28;20537;-68
2022/02/03 15:43:37;;;;;;;13.48;9.63;;;19.20;47.10;;;;;;6162685;28;20030;-70
2022/02/03 15:46:44;;;;;;;13.68;9.73;;;19.20;47.20;;;;;;6172859;28;20057;-70
2022/02/03 16:18:32;;;;;;;11.30;7.57;;;19.20;47.90;;;;;;6148488;28;20038;-69
2022/02/03 16:21:40;;;;;;;10.80;7.70;;;19.20;47.20;;;;;;6148931;28;20039;-69
2022/02/03 16:24:45;;;;;;;10.98;7.10;;;19.20;47.20;;;;;;6171277;28;20065;-69
2022/02/03 16:53:53;;;;;;;8.65;6.13;;;19.20;47.30;;;;;;6170989;28;20054;-69
2022/02/03 16:56:59;;;;;;;8.27;6.03;;;19.20;47.40;;;;;;6171438;28;20520;-70
2022/02/03 17:00:09;;;;;;;8.25;5.60;;;19.20;47.30;;;;;;6171560;28;20068;-70
2022/02/03 17:03:09;;;;;;;8.02;5.85;;;19.20;47.30;;;;;;6171627;28;20055;-69
2022/02/03 17:06:12;;;;;;;8.70;6.00;;;19.20;47.30;;;;;;6170854;28;20027;-70
2022/02/03 17:09:14;;;;;;;7.22;5.07;;;19.20;47.30;;;;;;6171383;28;20031;-70
2022/02/03 17:12:15;;;;;;;7.50;5.32;;;19.20;47.40;;;;;;6171353;28;20065;-70
2022/02/03 17:15:20;;;;;;;8.05;5.55;;;19.20;47.40;;;;;;6169783;28;20042;-70
2022/02/03 17:18:21;;;;;;;8.02;5.60;;;19.20;47.40;;;;;;6169517;28;20169;-69
2022/02/03 17:21:25;;;;;;;7.60;5.57;;;19.20;47.40;;;;;;6169108;28;20038;-69
2022/02/03 17:24:25;;;;;;;7.53;5.38;;;19.20;47.40;;;;;;6168928;28;20381;-69
2022/02/03 17:27:33;;;;;;;7.70;4.88;;;19.20;47.40;;;;;;6168506;28;20054;-69
2022/02/03 18:05:40;;;;;;;6.88;4.57;;;19.20;47.50;;;;;;6160737;28;20042;-69
2022/02/03 18:10:31;;;;;;;6.35;3.95;;;19.20;47.50;;;;;;6168204;28;20025;-69
2022/02/03 18:56:16;;;;;;;6.57;4.03;;;19.20;47.60;;;;;;6172860;28;20671;-69
2022/02/03 19:02:57;;;;;;;6.32;3.40;;;19.20;47.70;;;;;;6173536;28;20367;-69
2022/02/03 19:13:39;;;;;;;4.90;3.30;;;19.20;47.80;;;;;;6171721;28;20030;-70
2022/02/03 19:56:08;;;;;;;3.47;2.72;;;19.20;48.40;;;;;;6172779;28;20054;-69
2022/02/03 20:03:04;;;;;;;2.97;2.42;;;19.20;47.90;;;;;;6149031;28;20066;-69
2022/02/03 20:06:17;;;;;;;3.60;2.40;;;19.20;47.90;;;;;;6148902;28;20477;-69
2022/02/03 20:12:21;;;;;;;3.75;2.53;;;19.20;47.90;;;;;;6148865;28;20199;-69
2022/02/03 20:15:23;;;;;;;3.20;2.50;;;19.20;47.90;;;;;;6148353;28;20027;-69
2022/02/03 20:18:24;;;;;;;3.40;2.53;;;19.20;47.90;;;;;;6148345;28;20486;-69
2022/02/03 20:21:29;;;;;;;4.78;2.53;;;19.20;47.90;;;;;;6148516;28;20039;-69
2022/02/03 20:24:30;;;;;;;3.20;2.10;;;19.20;47.90;;;;;;6148377;28;20086;-68
2022/02/03 20:27:32;;;;;;;3.63;2.35;;;19.20;47.90;;;;;;6148436;28;20070;-69
2022/02/03 20:30:33;;;;;;;4.75;2.20;;;19.20;47.90;;;;;;6148363;28;20038;-69
2022/02/03 20:33:34;;;;;;;4.07;2.70;;;19.20;47.90;;;;;;6148633;28;20031;-69
2022/02/03 20:36:35;;;;;;;2.92;2.13;;;19.20;47.90;;;;;;6148571;28;20095;-68
2022/02/03 20:39:36;;;;;;;3.50;2.53;;;19.20;48.00;;;;;;6148580;28;20049;-69
2022/02/03 20:42:36;;;;;;;2.97;2.13;;;19.20;47.90;;;;;;6148194;28;20035;-69
2022/02/03 20:45:39;;;;;;;3.38;2.30;;;19.20;48.00;;;;;;6148095;29;20106;-69
2022/02/03 20:48:46;;;;;;;3.72;2.70;;;19.20;48.00;;;;;;6147472;29;20066;-69
2022/02/03 20:51:46;;;;;;;3.10;2.30;;;19.20;48.00;;;;;;6147937;29;20022;-69
2022/02/03 20:54:47;;;;;;;3.17;1.88;;;19.20;48.00;;;;;;6147305;28;20055;-69
2022/02/03 20:57:47;;;;;;;2.72;2.08;;;19.20;48.00;;;;;;6147737;29;20418;-69
2022/02/03 21:00:56;;;;;;;3.13;2.15;;;19.20;48.00;;;;;;6147616;29;20077;-69
2022/02/03 21:04:04;;;;;;;2.10;1.80;;;19.20;48.00;;;;;;6147430;29;20111;-69
2022/02/03 21:07:05;;;;;;;3.38;2.22;;;19.20;48.00;;;;;;6147770;29;20434;-69
2022/02/03 21:10:09;;;;;;;2.55;1.80;;;19.20;48.00;;;;;;6147658;29;20035;-69
2022/02/03 21:13:10;;;;;;;2.65;2.00;;;19.20;48.00;;;;;;6147853;28;20033;-69
2022/02/03 21:16:11;;;;;;;2.17;1.80;;;19.20;48.00;;;;;;6147286;29;20028;-69
2022/02/03 21:19:11;;;;;;;2.28;1.88;;;19.20;48.00;;;;;;6147479;29;20493;-69
2022/02/03 21:22:12;;;;;;;2.35;1.88;;;19.20;48.00;;;;;;6146818;29;20046;-69
2022/02/03 21:25:26;;;;;;;3.42;2.10;;;19.20;48.10;;;;;;6147027;29;20107;-69
2022/02/03 21:28:33;;;;;;;3.00;2.05;;;19.20;48.00;;;;;;6146958;29;20121;-69
2022/02/03 21:31:33;;;;;;;2.45;1.63;;;19.20;48.10;;;;;;6147015;28;20031;-69
2022/02/03 21:34:34;;;;;;;1.60;1.40;;;19.20;48.10;;;;;;6169130;28;20081;-69
2022/02/03 21:37:36;;;;;;;2.40;1.88;;;19.20;48.10;;;;;;6171151;28;20574;-69
2022/02/03 21:40:36;;;;;;;2.65;1.75;;;19.20;48.10;;;;;;6169342;28;20027;-69
2022/02/03 21:43:37;;;;;;;3.42;2.03;;;19.20;48.10;;;;;;6146698;29;20030;-68
2022/02/03 21:46:38;;;;;;;2.40;1.60;;;19.20;48.10;;;;;;6146859;29;20033;-69
2022/02/03 21:49:38;;;;;;;2.47;1.98;;;19.20;48.10;;;;;;6146418;29;20019;-69
2022/02/03 21:52:46;;;;;;;3.58;1.85;;;19.20;48.10;;;;;;6146934;29;20027;-66
2022/02/03 21:55:48;;;;;;;2.10;1.67;;;19.20;48.10;;;;;;6146575;29;20047;-69
2022/02/03 21:58:48;;;;;;;2.15;1.77;;;19.20;48.10;;;;;;6146513;29;20040;-69
2022/02/03 22:01:49;;;;;;;1.88;1.58;;;19.20;48.80;;;;;;6146186;29;20054;-71
2022/02/03 22:04:49;;;;;;;1.48;1.38;;;19.20;48.20;;;;;;6145432;28;20031;-69
2022/02/03 22:07:50;;;;;;;1.85;1.50;;;19.20;48.20;;;;;;6144945;29;20439;-69
2022/02/03 22:10:51;;;;;;;2.33;1.77;;;19.20;48.20;;;;;;6146466;29;20034;-69
2022/02/03 22:13:51;;;;;;;2.40;1.52;;;19.20;48.20;;;;;;6146187;29;20471;-69
2022/02/03 22:16:54;;;;;;;2.05;1.67;;;19.20;48.10;;;;;;6145970;29;20395;-69
2022/02/03 22:19:55;;;;;;;2.15;1.58;;;19.20;48.20;;;;;;6146293;29;20035;-69
2022/02/03 22:26:49;;;;;;;1.92;1.73;;;19.20;48.20;;;;;;6146034;29;20031;-69
2022/02/03 22:43:19;;;;;;;2.00;1.40;;;19.20;48.20;;;;;;6149078;28;20320;-69
2022/02/03 22:49:34;;;;;;;1.60;1.25;;;19.20;48.20;;;;;;6145532;28;20075;-69
2022/02/03 22:52:35;;;;;;;2.13;1.50;;;19.20;48.20;;;;;;6146220;29;20035;-70
2022/02/03 22:55:38;;;;;;;1.42;1.30;;;19.20;48.20;;;;;;6145362;29;20078;-69
2022/02/03 23:01:39;;;;;;;1.65;1.27;;;19.20;48.20;;;;;;6145741;29;20130;-69
2022/02/03 23:04:40;;;;;;;2.22;1.42;;;19.20;48.20;;;;;;6145857;29;20027;-69
2022/02/03 23:14:12;;;;;;;1.83;1.33;;;19.20;48.20;;;;;;6169538;28;20034;-69
2022/02/03 23:20:45;;;;;;;1.77;1.50;;;19.20;48.20;;;;;;6173808;28;20481;-69
2022/02/03 23:23:46;;;;;;;1.55;1.35;;;19.20;48.20;;;;;;6173716;28;20034;-69
2022/02/03 23:26:54;;;;;;;1.98;1.42;;;19.20;48.20;;;;;;6174108;28;20085;-69
2022/02/03 23:29:55;;;;;;;1.75;1.42;;;19.20;48.20;;;;;;6173617;28;20041;-69
2022/02/03 23:32:56;;;;;;;1.30;1.10;;;19.20;48.20;;;;;;6172967;28;20023;-69
2022/02/03 23:35:57;;;;;;;2.08;1.33;;;19.20;48.20;;;;;;6173865;28;20027;-69
2022/02/03 23:39:19;;;;;;;1.35;1.17;;;19.20;48.20;;;;;;6173239;28;20385;-69
2022/02/03 23:49:44;;;;;;;1.45;1.20;;;19.20;48.30;;;;;;6149351;29;20070;-69
